sensor_id;sensor_type;location;lat;lon;timestamp;P1;durP1;ratioP1;P2;durP2;ratioP2
29570;SDS011;16814;52.118;11.436;2022-12-29T00:02:04;6.47;;;2.13;;
29570;SDS011;16814;52.118;11.436;2022-12-29T00:04:29;6.85;;;2.13;;
29570;SDS011;16814;52.118;11.436;2022-12-29T00:06:55;6.03;;;2.10;;
29570;SDS011;16814;52.118;11.436;2022-12-29T00:09:21;4.13;;;2.10;;
29570;SDS011;16814;52.118;11.436;2022-12-29T00:11:47;7.57;;;2.25;;
29570;SDS011;16814;52.118;11.436;2022-12-29T00:14:14;4.68;;;2.20;;
29570;SDS011;16814;52.118;11.436;2022-12-29T00:16:59;5.55;;;2.47;;
29570;SDS011;16814;52.118;11.436;2022-12-29T00:19:24;4.60;;;2.00;;
29570;SDS011;16814;52.118;11.436;2022-12-29T00:22:12;3.03;;;2.10;;
29570;SDS011;16814;52.118;11.436;2022-12-29T00:24:57;5.75;;;2.00;;
29570;SDS011;16814;52.118;11.436;2022-12-29T00:27:29;3.58;;;2.20;;
29570;SDS011;16814;52.118;11.436;2022-12-29T00:30:15;4.40;;;2.00;;
29570;SDS011;16814;52.118;11.436;2022-12-29T00:35:55;3.85;;;2.08;;
29570;SDS011;16814;52.118;11.436;2022-12-29T00:38:24;3.67;;;2.13;;
29570;SDS011;16814;52.118;11.436;2022-12-29T00:41:08;3.50;;;2.08;;
29570;SDS011;16814;52.118;11.436;2022-12-29T00:43:53;4.60;;;2.03;;
29570;SDS011;16814;52.118;11.436;2022-12-29T00:46:33;5.88;;;2.42;;
29570;SDS011;16814;52.118;11.436;2022-12-29T00:49:00;2.33;;;1.90;;
29570;SDS011;16814;52.118;11.436;2022-12-29T00:51:45;4.97;;;2.17;;
29570;SDS011;16814;52.118;11.436;2022-12-29T00:54:11;3.50;;;2.03;;
29570;SDS011;16814;52.118;11.436;2022-12-29T00:56:37;4.90;;;2.42;;
29570;SDS011;16814;52.118;11.436;2022-12-29T00:59:03;4.53;;;2.20;;
29570;SDS011;16814;52.118;11.436;2022-12-29T01:01:31;10.10;;;2.50;;
29570;SDS011;16814;52.118;11.436;2022-12-29T01:03:57;4.45;;;2.13;;
29570;SDS011;16814;52.118;11.436;2022-12-29T01:06:23;4.47;;;2.07;;
29570;SDS011;16814;52.118;11.436;2022-12-29T01:08:49;5.47;;;2.42;;
29570;SDS011;16814;52.118;11.436;2022-12-29T01:11:35;3.20;;;2.10;;
29570;SDS011;16814;52.118;11.436;2022-12-29T01:14:01;3.83;;;2.10;;
29570;SDS011;16814;52.118;11.436;2022-12-29T01:16:27;4.57;;;2.80;;
29570;SDS011;16814;52.118;11.436;2022-12-29T01:18:53;2.90;;;1.98;;
29570;SDS011;16814;52.118;11.436;2022-12-29T01:21:19;3.63;;;2.00;;
29570;SDS011;16814;52.118;11.436;2022-12-29T01:23:45;4.53;;;2.20;;
29570;SDS011;16814;52.118;11.436;2022-12-29T01:26:11;2.40;;;1.90;;
29570;SDS011;16814;52.118;11.436;2022-12-29T01:28:37;3.50;;;2.25;;
29570;SDS011;16814;52.118;11.436;2022-12-29T01:31:06;4.28;;;2.17;;
29570;SDS011;16814;52.118;11.436;2022-12-29T01:33:36;3.88;;;2.00;;
29570;SDS011;16814;52.118;11.436;2022-12-29T01:36:03;5.03;;;2.27;;
29570;SDS011;16814;52.118;11.436;2022-12-29T01:38:30;4.85;;;2.10;;
29570;SDS011;16814;52.118;11.436;2022-12-29T01:40:56;4.05;;;2.00;;
29570;SDS011;16814;52.118;11.436;2022-12-29T01:43:21;4.73;;;2.13;;
29570;SDS011;16814;52.118;11.436;2022-12-29T01:46:03;3.20;;;2.10;;
29570;SDS011;16814;52.118;11.436;2022-12-29T01:48:28;3.70;;;2.20;;
29570;SDS011;16814;52.118;11.436;2022-12-29T01:50:54;3.60;;;2.27;;
29570;SDS011;16814;52.118;11.436;2022-12-29T01:53:27;4.47;;;2.33;;
29570;SDS011;16814;52.118;11.436;2022-12-29T01:55:59;4.32;;;2.20;;
29570;SDS011;16814;52.118;11.436;2022-12-29T01:58:29;5.90;;;2.20;;
29570;SDS011;16814;52.118;11.436;2022-12-29T02:00:58;5.88;;;2.08;;
29570;SDS011;16814;52.118;11.436;2022-12-29T02:03:25;3.63;;;2.10;;
29570;SDS011;16814;52.118;11.436;2022-12-29T02:08:29;4.33;;;2.20;;
29570;SDS011;16814;52.118;11.436;2022-12-29T02:10:55;5.10;;;2.22;;
29570;SDS011;16814;52.118;11.436;2022-12-29T02:13:26;4.38;;;2.05;;
29570;SDS011;16814;52.118;11.436;2022-12-29T02:16:09;3.72;;;2.10;;
29570;SDS011;16814;52.118;11.436;2022-12-29T02:24:30;3.70;;;2.20;;
29570;SDS011;16814;52.118;11.436;2022-12-29T02:32:57;4.43;;;2.80;;
29570;SDS011;16814;52.118;11.436;2022-12-29T02:43:03;4.90;;;2.40;;
29570;SDS011;16814;52.118;11.436;2022-12-29T02:45:40;6.25;;;2.63;;
29570;SDS011;16814;52.118;11.436;2022-12-29T02:48:29;5.88;;;2.40;;
29570;SDS011;16814;52.118;11.436;2022-12-29T02:51:03;5.53;;;2.10;;
29570;SDS011;16814;52.118;11.436;2022-12-29T02:53:33;6.60;;;2.58;;
29570;SDS011;16814;52.118;11.436;2022-12-29T02:56:19;5.90;;;2.50;;
29570;SDS011;16814;52.118;11.436;2022-12-29T02:58:45;4.80;;;2.25;;
29570;SDS011;16814;52.118;11.436;2022-12-29T03:06:30;4.85;;;2.30;;
29570;SDS011;16814;52.118;11.436;2022-12-29T03:09:28;6.00;;;2.50;;
29570;SDS011;16814;52.118;11.436;2022-12-29T03:17:54;4.88;;;2.05;;
29570;SDS011;16814;52.118;11.436;2022-12-29T03:21:05;3.95;;;2.50;;
29570;SDS011;16814;52.118;11.436;2022-12-29T03:23:25;5.47;;;2.30;;
29570;SDS011;16814;52.118;11.436;2022-12-29T03:25:52;6.20;;;2.42;;
29570;SDS011;16814;52.118;11.436;2022-12-29T03:28:24;3.60;;;2.15;;
29570;SDS011;16814;52.118;11.436;2022-12-29T03:30:54;4.60;;;2.85;;
29570;SDS011;16814;52.118;11.436;2022-12-29T03:33:23;7.07;;;2.50;;
29570;SDS011;16814;52.118;11.436;2022-12-29T03:35:50;5.90;;;2.60;;
29570;SDS011;16814;52.118;11.436;2022-12-29T03:41:14;5.65;;;2.63;;
29570;SDS011;16814;52.118;11.436;2022-12-29T03:43:45;5.82;;;2.53;;
29570;SDS011;16814;52.118;11.436;2022-12-29T03:46:11;4.45;;;2.60;;
29570;SDS011;16814;52.118;11.436;2022-12-29T03:48:36;7.60;;;2.43;;
29570;SDS011;16814;52.118;11.436;2022-12-29T03:51:02;5.40;;;2.70;;
29570;SDS011;16814;52.118;11.436;2022-12-29T03:53:27;5.47;;;2.60;;
29570;SDS011;16814;52.118;11.436;2022-12-29T03:55:53;4.28;;;2.40;;
29570;SDS011;16814;52.118;11.436;2022-12-29T03:58:19;4.73;;;2.60;;
29570;SDS011;16814;52.118;11.436;2022-12-29T04:00:44;4.80;;;2.50;;
29570;SDS011;16814;52.118;11.436;2022-12-29T04:03:10;8.40;;;3.58;;
29570;SDS011;16814;52.118;11.436;2022-12-29T04:05:35;7.13;;;2.30;;
29570;SDS011;16814;52.118;11.436;2022-12-29T04:08:01;5.33;;;2.50;;
29570;SDS011;16814;52.118;11.436;2022-12-29T04:10:26;4.67;;;2.50;;
29570;SDS011;16814;52.118;11.436;2022-12-29T04:12:52;6.18;;;2.70;;
29570;SDS011;16814;52.118;11.436;2022-12-29T04:15:18;5.90;;;2.80;;
29570;SDS011;16814;52.118;11.436;2022-12-29T04:17:43;7.35;;;2.70;;
29570;SDS011;16814;52.118;11.436;2022-12-29T04:20:09;5.27;;;2.97;;
29570;SDS011;16814;52.118;11.436;2022-12-29T04:22:58;5.20;;;2.67;;
29570;SDS011;16814;52.118;11.436;2022-12-29T04:25:27;3.88;;;2.20;;
29570;SDS011;16814;52.118;11.436;2022-12-29T04:27:52;5.68;;;2.70;;
29570;SDS011;16814;52.118;11.436;2022-12-29T04:30:18;5.80;;;2.30;;
29570;SDS011;16814;52.118;11.436;2022-12-29T04:32:44;5.15;;;2.50;;
29570;SDS011;16814;52.118;11.436;2022-12-29T04:35:09;6.33;;;2.30;;
29570;SDS011;16814;52.118;11.436;2022-12-29T04:37:35;6.07;;;2.33;;
29570;SDS011;16814;52.118;11.436;2022-12-29T04:40:00;5.40;;;2.40;;
29570;SDS011;16814;52.118;11.436;2022-12-29T04:42:26;5.72;;;2.72;;
29570;SDS011;16814;52.118;11.436;2022-12-29T04:44:51;5.17;;;2.40;;
29570;SDS011;16814;52.118;11.436;2022-12-29T04:47:17;5.63;;;2.50;;
29570;SDS011;16814;52.118;11.436;2022-12-29T04:49:43;5.32;;;2.40;;
29570;SDS011;16814;52.118;11.436;2022-12-29T04:52:08;4.50;;;2.20;;
29570;SDS011;16814;52.118;11.436;2022-12-29T04:54:34;4.10;;;2.33;;
29570;SDS011;16814;52.118;11.436;2022-12-29T04:56:59;6.47;;;2.38;;
29570;SDS011;16814;52.118;11.436;2022-12-29T04:59:25;5.20;;;2.37;;
29570;SDS011;16814;52.118;11.436;2022-12-29T05:01:51;4.70;;;2.55;;
29570;SDS011;16814;52.118;11.436;2022-12-29T05:04:16;5.30;;;2.30;;
29570;SDS011;16814;52.118;11.436;2022-12-29T05:06:42;7.90;;;2.35;;
29570;SDS011;16814;52.118;11.436;2022-12-29T05:09:07;4.03;;;2.50;;
29570;SDS011;16814;52.118;11.436;2022-12-29T05:11:33;7.23;;;2.97;;
29570;SDS011;16814;52.118;11.436;2022-12-29T05:13:58;6.57;;;2.47;;
29570;SDS011;16814;52.118;11.436;2022-12-29T05:16:24;4.15;;;2.40;;
29570;SDS011;16814;52.118;11.436;2022-12-29T05:18:49;5.40;;;2.23;;
29570;SDS011;16814;52.118;11.436;2022-12-29T05:21:15;5.67;;;2.40;;
29570;SDS011;16814;52.118;11.436;2022-12-29T05:23:40;4.80;;;2.10;;
29570;SDS011;16814;52.118;11.436;2022-12-29T05:26:06;4.40;;;2.40;;
29570;SDS011;16814;52.118;11.436;2022-12-29T05:28:31;5.03;;;2.37;;
29570;SDS011;16814;52.118;11.436;2022-12-29T05:31:00;5.45;;;2.20;;
29570;SDS011;16814;52.118;11.436;2022-12-29T05:33:26;4.87;;;2.40;;
29570;SDS011;16814;52.118;11.436;2022-12-29T05:35:51;4.50;;;2.35;;
29570;SDS011;16814;52.118;11.436;2022-12-29T05:38:17;3.70;;;2.30;;
29570;SDS011;16814;52.118;11.436;2022-12-29T05:40:43;3.63;;;2.17;;
29570;SDS011;16814;52.118;11.436;2022-12-29T05:43:08;5.40;;;2.43;;
29570;SDS011;16814;52.118;11.436;2022-12-29T05:45:35;5.18;;;2.20;;
29570;SDS011;16814;52.118;11.436;2022-12-29T05:48:01;4.13;;;2.47;;
29570;SDS011;16814;52.118;11.436;2022-12-29T05:50:27;4.90;;;2.50;;
29570;SDS011;16814;52.118;11.436;2022-12-29T05:52:53;6.68;;;2.47;;
29570;SDS011;16814;52.118;11.436;2022-12-29T05:55:18;5.73;;;2.87;;
29570;SDS011;16814;52.118;11.436;2022-12-29T05:57:44;4.90;;;2.30;;
29570;SDS011;16814;52.118;11.436;2022-12-29T06:00:10;3.90;;;2.60;;
29570;SDS011;16814;52.118;11.436;2022-12-29T06:02:36;8.37;;;2.47;;
29570;SDS011;16814;52.118;11.436;2022-12-29T06:05:01;3.20;;;2.20;;
29570;SDS011;16814;52.118;11.436;2022-12-29T06:07:27;6.93;;;2.30;;
29570;SDS011;16814;52.118;11.436;2022-12-29T06:09:53;4.72;;;2.35;;
29570;SDS011;16814;52.118;11.436;2022-12-29T06:12:19;4.50;;;1.90;;
29570;SDS011;16814;52.118;11.436;2022-12-29T06:14:44;4.00;;;2.10;;
29570;SDS011;16814;52.118;11.436;2022-12-29T06:17:10;4.80;;;2.17;;
29570;SDS011;16814;52.118;11.436;2022-12-29T06:19:36;3.95;;;2.20;;
29570;SDS011;16814;52.118;11.436;2022-12-29T06:22:01;4.37;;;2.10;;
29570;SDS011;16814;52.118;11.436;2022-12-29T06:24:27;3.38;;;2.08;;
29570;SDS011;16814;52.118;11.436;2022-12-29T06:26:53;3.25;;;1.95;;
29570;SDS011;16814;52.118;11.436;2022-12-29T06:29:18;4.27;;;1.73;;
29570;SDS011;16814;52.118;11.436;2022-12-29T06:31:45;2.85;;;1.65;;
29570;SDS011;16814;52.118;11.436;2022-12-29T06:34:11;3.00;;;1.83;;
29570;SDS011;16814;52.118;11.436;2022-12-29T06:36:37;2.53;;;1.70;;
29570;SDS011;16814;52.118;11.436;2022-12-29T06:39:03;2.78;;;1.85;;
29570;SDS011;16814;52.118;11.436;2022-12-29T06:41:29;2.78;;;1.60;;
29570;SDS011;16814;52.118;11.436;2022-12-29T06:43:55;5.70;;;1.73;;
29570;SDS011;16814;52.118;11.436;2022-12-29T06:46:20;4.57;;;1.90;;
29570;SDS011;16814;52.118;11.436;2022-12-29T06:48:48;2.65;;;1.80;;
29570;SDS011;16814;52.118;11.436;2022-12-29T06:51:14;5.75;;;2.05;;
29570;SDS011;16814;52.118;11.436;2022-12-29T06:53:39;3.38;;;1.90;;
29570;SDS011;16814;52.118;11.436;2022-12-29T06:56:05;4.43;;;1.80;;
29570;SDS011;16814;52.118;11.436;2022-12-29T06:58:31;3.87;;;1.80;;
29570;SDS011;16814;52.118;11.436;2022-12-29T07:00:57;3.35;;;1.65;;
29570;SDS011;16814;52.118;11.436;2022-12-29T07:03:22;3.77;;;1.87;;
29570;SDS011;16814;52.118;11.436;2022-12-29T07:05:48;4.28;;;1.60;;
29570;SDS011;16814;52.118;11.436;2022-12-29T07:08:14;3.03;;;1.80;;
29570;SDS011;16814;52.118;11.436;2022-12-29T07:10:39;2.80;;;1.60;;
29570;SDS011;16814;52.118;11.436;2022-12-29T07:13:05;4.27;;;1.83;;
29570;SDS011;16814;52.118;11.436;2022-12-29T07:15:32;2.30;;;1.60;;
29570;SDS011;16814;52.118;11.436;2022-12-29T07:17:58;4.78;;;1.73;;
29570;SDS011;16814;52.118;11.436;2022-12-29T07:20:24;5.17;;;1.50;;
29570;SDS011;16814;52.118;11.436;2022-12-29T07:22:49;3.20;;;1.60;;
29570;SDS011;16814;52.118;11.436;2022-12-29T07:25:15;1.90;;;1.40;;
29570;SDS011;16814;52.118;11.436;2022-12-29T07:27:41;3.80;;;1.67;;
29570;SDS011;16814;52.118;11.436;2022-12-29T07:30:06;4.00;;;1.70;;
29570;SDS011;16814;52.118;11.436;2022-12-29T07:32:33;3.88;;;2.13;;
29570;SDS011;16814;52.118;11.436;2022-12-29T07:34:59;2.40;;;1.70;;
29570;SDS011;16814;52.118;11.436;2022-12-29T07:37:24;1.60;;;1.20;;
29570;SDS011;16814;52.118;11.436;2022-12-29T07:39:50;5.43;;;1.30;;
29570;SDS011;16814;52.118;11.436;2022-12-29T07:42:15;2.43;;;1.57;;
29570;SDS011;16814;52.118;11.436;2022-12-29T07:44:41;3.05;;;1.73;;
29570;SDS011;16814;52.118;11.436;2022-12-29T07:47:07;2.30;;;1.65;;
29570;SDS011;16814;52.118;11.436;2022-12-29T07:49:33;3.37;;;1.70;;
29570;SDS011;16814;52.118;11.436;2022-12-29T07:51:58;2.97;;;1.77;;
29570;SDS011;16814;52.118;11.436;2022-12-29T07:54:24;3.03;;;1.42;;
29570;SDS011;16814;52.118;11.436;2022-12-29T07:56:49;3.30;;;2.67;;
29570;SDS011;16814;52.118;11.436;2022-12-29T07:59:15;3.80;;;1.50;;
29570;SDS011;16814;52.118;11.436;2022-12-29T08:01:41;2.73;;;1.13;;
29570;SDS011;16814;52.118;11.436;2022-12-29T08:04:07;1.60;;;1.20;;
29570;SDS011;16814;52.118;11.436;2022-12-29T08:06:32;3.87;;;1.00;;
29570;SDS011;16814;52.118;11.436;2022-12-29T08:08:58;1.85;;;0.90;;
29570;SDS011;16814;52.118;11.436;2022-12-29T08:11:25;2.13;;;0.93;;
29570;SDS011;16814;52.118;11.436;2022-12-29T08:13:50;1.25;;;0.85;;
29570;SDS011;16814;52.118;11.436;2022-12-29T08:16:16;1.93;;;1.03;;
29570;SDS011;16814;52.118;11.436;2022-12-29T08:18:42;1.13;;;0.70;;
29570;SDS011;16814;52.118;11.436;2022-12-29T08:21:07;1.67;;;0.70;;
29570;SDS011;16814;52.118;11.436;2022-12-29T08:23:33;2.15;;;1.00;;
29570;SDS011;16814;52.118;11.436;2022-12-29T08:25:59;2.93;;;0.90;;
29570;SDS011;16814;52.118;11.436;2022-12-29T08:28:25;3.00;;;0.98;;
29570;SDS011;16814;52.118;11.436;2022-12-29T08:30:51;3.70;;;1.10;;
29570;SDS011;16814;52.118;11.436;2022-12-29T08:33:17;3.43;;;0.83;;
29570;SDS011;16814;52.118;11.436;2022-12-29T08:35:43;1.77;;;0.85;;
29570;SDS011;16814;52.118;11.436;2022-12-29T08:38:10;1.58;;;0.88;;
29570;SDS011;16814;52.118;11.436;2022-12-29T08:40:36;1.20;;;0.77;;
29570;SDS011;16814;52.118;11.436;2022-12-29T08:43:02;1.80;;;0.77;;
29570;SDS011;16814;52.118;11.436;2022-12-29T08:45:27;1.73;;;0.80;;
29570;SDS011;16814;52.118;11.436;2022-12-29T08:47:53;1.20;;;0.75;;
29570;SDS011;16814;52.118;11.436;2022-12-29T08:50:18;3.47;;;0.90;;
29570;SDS011;16814;52.118;11.436;2022-12-29T08:52:44;2.80;;;0.80;;
29570;SDS011;16814;52.118;11.436;2022-12-29T08:55:10;2.85;;;0.93;;
29570;SDS011;16814;52.118;11.436;2022-12-29T08:57:36;2.43;;;1.00;;
29570;SDS011;16814;52.118;11.436;2022-12-29T09:00:03;2.25;;;0.80;;
29570;SDS011;16814;52.118;11.436;2022-12-29T09:02:29;1.90;;;0.80;;
29570;SDS011;16814;52.118;11.436;2022-12-29T09:04:54;1.63;;;0.90;;
29570;SDS011;16814;52.118;11.436;2022-12-29T09:07:22;2.25;;;0.98;;
29570;SDS011;16814;52.118;11.436;2022-12-29T09:09:48;3.70;;;0.77;;
29570;SDS011;16814;52.118;11.436;2022-12-29T09:12:15;4.40;;;1.20;;
29570;SDS011;16814;52.118;11.436;2022-12-29T09:14:41;3.30;;;1.00;;
29570;SDS011;16814;52.118;11.436;2022-12-29T09:17:07;2.65;;;1.00;;
29570;SDS011;16814;52.118;11.436;2022-12-29T09:19:52;2.43;;;1.20;;
29570;SDS011;16814;52.118;11.436;2022-12-29T09:22:17;3.38;;;1.00;;
29570;SDS011;16814;52.118;11.436;2022-12-29T09:24:43;3.17;;;1.10;;
29570;SDS011;16814;52.118;11.436;2022-12-29T09:27:08;4.47;;;1.40;;
29570;SDS011;16814;52.118;11.436;2022-12-29T09:29:34;3.05;;;1.20;;
29570;SDS011;16814;52.118;11.436;2022-12-29T09:32:00;1.33;;;0.90;;
29570;SDS011;16814;52.118;11.436;2022-12-29T09:34:25;2.78;;;0.90;;
29570;SDS011;16814;52.118;11.436;2022-12-29T09:36:51;1.60;;;1.00;;
29570;SDS011;16814;52.118;11.436;2022-12-29T09:39:16;5.00;;;1.03;;
29570;SDS011;16814;52.118;11.436;2022-12-29T09:41:49;2.22;;;1.00;;
29570;SDS011;16814;52.118;11.436;2022-12-29T09:46:58;2.22;;;1.10;;
29570;SDS011;16814;52.118;11.436;2022-12-29T09:52:00;1.23;;;0.80;;
29570;SDS011;16814;52.118;11.436;2022-12-29T09:57:01;1.98;;;1.05;;
29570;SDS011;16814;52.118;11.436;2022-12-29T09:59:30;2.13;;;0.70;;
29570;SDS011;16814;52.118;11.436;2022-12-29T10:05:17;2.00;;;0.80;;
29570;SDS011;16814;52.118;11.436;2022-12-29T10:11:05;4.43;;;0.80;;
29570;SDS011;16814;52.118;11.436;2022-12-29T10:17:08;1.42;;;0.60;;
29570;SDS011;16814;52.118;11.436;2022-12-29T10:19:51;5.82;;;0.93;;
29570;SDS011;16814;52.118;11.436;2022-12-29T10:25:19;3.40;;;0.88;;
29570;SDS011;16814;52.118;11.436;2022-12-29T10:27:48;2.58;;;0.65;;
29570;SDS011;16814;52.118;11.436;2022-12-29T10:30:15;1.50;;;0.60;;
29570;SDS011;16814;52.118;11.436;2022-12-29T10:32:47;1.80;;;0.75;;
29570;SDS011;16814;52.118;11.436;2022-12-29T10:35:57;1.13;;;0.60;;
29570;SDS011;16814;52.118;11.436;2022-12-29T10:41:07;1.00;;;0.40;;
29570;SDS011;16814;52.118;11.436;2022-12-29T10:43:48;3.05;;;0.70;;
29570;SDS011;16814;52.118;11.436;2022-12-29T10:46:17;3.80;;;0.60;;
29570;SDS011;16814;52.118;11.436;2022-12-29T10:48:46;3.95;;;0.52;;
29570;SDS011;16814;52.118;11.436;2022-12-29T10:51:16;1.92;;;0.45;;
29570;SDS011;16814;52.118;11.436;2022-12-29T10:54:33;1.98;;;0.30;;
29570;SDS011;16814;52.118;11.436;2022-12-29T10:56:42;1.60;;;0.30;;
29570;SDS011;16814;52.118;11.436;2022-12-29T11:07:23;2.15;;;0.43;;
29570;SDS011;16814;52.118;11.436;2022-12-29T11:09:51;1.38;;;0.40;;
29570;SDS011;16814;52.118;11.436;2022-12-29T11:12:21;2.60;;;0.40;;
29570;SDS011;16814;52.118;11.436;2022-12-29T11:17:46;0.80;;;0.38;;
29570;SDS011;16814;52.118;11.436;2022-12-29T11:23:03;2.63;;;0.50;;
29570;SDS011;16814;52.118;11.436;2022-12-29T11:25:29;3.50;;;0.70;;
29570;SDS011;16814;52.118;11.436;2022-12-29T11:30:26;0.40;;;0.30;;
29570;SDS011;16814;52.118;11.436;2022-12-29T11:32:54;1.20;;;0.30;;
29570;SDS011;16814;52.118;11.436;2022-12-29T11:35:34;1.48;;;0.50;;
29570;SDS011;16814;52.118;11.436;2022-12-29T11:38:03;0.90;;;0.50;;
29570;SDS011;16814;52.118;11.436;2022-12-29T11:40:30;1.75;;;0.50;;
29570;SDS011;16814;52.118;11.436;2022-12-29T11:47:58;0.75;;;0.55;;
29570;SDS011;16814;52.118;11.436;2022-12-29T11:50:28;1.15;;;0.50;;
29570;SDS011;16814;52.118;11.436;2022-12-29T11:55:27;2.05;;;0.50;;
29570;SDS011;16814;52.118;11.436;2022-12-29T11:57:54;1.05;;;0.50;;
29570;SDS011;16814;52.118;11.436;2022-12-29T12:00:22;1.38;;;0.50;;
29570;SDS011;16814;52.118;11.436;2022-12-29T12:02:58;1.15;;;0.43;;
29570;SDS011;16814;52.118;11.436;2022-12-29T12:05:41;2.25;;;0.55;;
29570;SDS011;16814;52.118;11.436;2022-12-29T12:10:46;0.67;;;0.43;;
29570;SDS011;16814;52.118;11.436;2022-12-29T12:13:31;2.05;;;0.63;;
29570;SDS011;16814;52.118;11.436;2022-12-29T12:16:12;1.00;;;0.50;;
29570;SDS011;16814;52.118;11.436;2022-12-29T12:18:49;1.77;;;0.60;;
29570;SDS011;16814;52.118;11.436;2022-12-29T12:29:38;3.38;;;0.77;;
29570;SDS011;16814;52.118;11.436;2022-12-29T12:32:15;2.38;;;0.85;;
29570;SDS011;16814;52.118;11.436;2022-12-29T12:34:45;1.70;;;0.53;;
29570;SDS011;16814;52.118;11.436;2022-12-29T12:45:52;3.67;;;0.70;;
29570;SDS011;16814;52.118;11.436;2022-12-29T12:53:52;1.93;;;0.70;;
29570;SDS011;16814;52.118;11.436;2022-12-29T13:00:00;2.43;;;0.80;;
29570;SDS011;16814;52.118;11.436;2022-12-29T13:02:40;1.25;;;0.68;;
29570;SDS011;16814;52.118;11.436;2022-12-29T13:08:22;1.58;;;0.68;;
29570;SDS011;16814;52.118;11.436;2022-12-29T13:13:47;4.53;;;1.15;;
29570;SDS011;16814;52.118;11.436;2022-12-29T13:16:31;3.85;;;0.90;;
29570;SDS011;16814;52.118;11.436;2022-12-29T13:28:04;3.83;;;0.95;;
29570;SDS011;16814;52.118;11.436;2022-12-29T13:30:33;3.25;;;0.85;;
29570;SDS011;16814;52.118;11.436;2022-12-29T13:36:00;2.92;;;0.93;;
29570;SDS011;16814;52.118;11.436;2022-12-29T13:38:38;3.03;;;0.95;;
29570;SDS011;16814;52.118;11.436;2022-12-29T13:41:10;3.38;;;1.30;;
29570;SDS011;16814;52.118;11.436;2022-12-29T13:43:39;1.95;;;0.80;;
29570;SDS011;16814;52.118;11.436;2022-12-29T13:46:19;3.85;;;0.80;;
29570;SDS011;16814;52.118;11.436;2022-12-29T13:48:51;2.70;;;0.60;;
29570;SDS011;16814;52.118;11.436;2022-12-29T13:51:19;1.58;;;0.60;;
29570;SDS011;16814;52.118;11.436;2022-12-29T13:56:24;2.92;;;0.85;;
29570;SDS011;16814;52.118;11.436;2022-12-29T14:02:09;2.00;;;0.80;;
29570;SDS011;16814;52.118;11.436;2022-12-29T14:07:42;1.67;;;0.80;;
29570;SDS011;16814;52.118;11.436;2022-12-29T14:10:25;3.42;;;0.82;;
29570;SDS011;16814;52.118;11.436;2022-12-29T14:13:04;2.77;;;0.90;;
29570;SDS011;16814;52.118;11.436;2022-12-29T14:15:37;4.27;;;0.73;;
29570;SDS011;16814;52.118;11.436;2022-12-29T14:20:56;3.88;;;0.88;;
29570;SDS011;16814;52.118;11.436;2022-12-29T14:23:29;2.70;;;0.90;;
29570;SDS011;16814;52.118;11.436;2022-12-29T14:28:34;5.70;;;0.95;;
29570;SDS011;16814;52.118;11.436;2022-12-29T14:31:04;4.10;;;1.07;;
29570;SDS011;16814;52.118;11.436;2022-12-29T14:33:31;2.88;;;0.88;;
29570;SDS011;16814;52.118;11.436;2022-12-29T14:38:58;3.50;;;0.88;;
29570;SDS011;16814;52.118;11.436;2022-12-29T14:43:59;4.43;;;1.05;;
29570;SDS011;16814;52.118;11.436;2022-12-29T14:46:44;4.78;;;1.00;;
29570;SDS011;16814;52.118;11.436;2022-12-29T14:49:15;2.50;;;0.90;;
29570;SDS011;16814;52.118;11.436;2022-12-29T14:51:44;7.10;;;1.10;;
29570;SDS011;16814;52.118;11.436;2022-12-29T14:57:05;6.13;;;1.00;;
29570;SDS011;16814;52.118;11.436;2022-12-29T14:59:35;4.13;;;0.90;;
29570;SDS011;16814;52.118;11.436;2022-12-29T15:02:03;5.15;;;1.10;;
29570;SDS011;16814;52.118;11.436;2022-12-29T15:04:37;4.65;;;0.80;;
29570;SDS011;16814;52.118;11.436;2022-12-29T15:07:07;3.55;;;0.88;;
29570;SDS011;16814;52.118;11.436;2022-12-29T15:09:35;3.03;;;0.82;;
29570;SDS011;16814;52.118;11.436;2022-12-29T15:12:05;5.90;;;0.90;;
29570;SDS011;16814;52.118;11.436;2022-12-29T15:14:53;4.25;;;0.95;;
29570;SDS011;16814;52.118;11.436;2022-12-29T15:19:51;2.60;;;0.90;;
29570;SDS011;16814;52.118;11.436;2022-12-29T15:22:18;8.18;;;0.90;;
29570;SDS011;16814;52.118;11.436;2022-12-29T15:24:44;4.28;;;0.90;;
29570;SDS011;16814;52.118;11.436;2022-12-29T15:27:13;3.15;;;0.68;;
29570;SDS011;16814;52.118;11.436;2022-12-29T15:29:41;7.10;;;1.20;;
29570;SDS011;16814;52.118;11.436;2022-12-29T15:32:16;6.20;;;1.20;;
29570;SDS011;16814;52.118;11.436;2022-12-29T15:34:46;4.90;;;1.45;;
29570;SDS011;16814;52.118;11.436;2022-12-29T15:37:16;5.22;;;0.95;;
29570;SDS011;16814;52.118;11.436;2022-12-29T15:39:45;7.00;;;1.02;;
29570;SDS011;16814;52.118;11.436;2022-12-29T15:42:23;2.90;;;0.98;;
29570;SDS011;16814;52.118;11.436;2022-12-29T15:45:10;5.65;;;1.15;;
29570;SDS011;16814;52.118;11.436;2022-12-29T15:47:38;3.90;;;0.90;;
29570;SDS011;16814;52.118;11.436;2022-12-29T15:50:40;4.70;;;1.30;;
29570;SDS011;16814;52.118;11.436;2022-12-29T15:53:00;4.33;;;1.37;;
29570;SDS011;16814;52.118;11.436;2022-12-29T15:55:34;5.65;;;1.20;;
29570;SDS011;16814;52.118;11.436;2022-12-29T15:58:22;3.60;;;0.90;;
29570;SDS011;16814;52.118;11.436;2022-12-29T16:01:29;8.30;;;1.73;;
29570;SDS011;16814;52.118;11.436;2022-12-29T16:04:19;4.90;;;0.95;;
29570;SDS011;16814;52.118;11.436;2022-12-29T16:07:06;7.18;;;1.48;;
29570;SDS011;16814;52.118;11.436;2022-12-29T16:13:21;4.13;;;1.13;;
29570;SDS011;16814;52.118;11.436;2022-12-29T16:16:19;4.00;;;1.25;;
29570;SDS011;16814;52.118;11.436;2022-12-29T16:19:12;6.03;;;1.38;;
29570;SDS011;16814;52.118;11.436;2022-12-29T16:22:14;5.40;;;1.23;;
29570;SDS011;16814;52.118;11.436;2022-12-29T16:28:00;3.95;;;1.20;;
29570;SDS011;16814;52.118;11.436;2022-12-29T16:30:47;4.97;;;1.20;;
29570;SDS011;16814;52.118;11.436;2022-12-29T16:33:53;3.90;;;1.13;;
29570;SDS011;16814;52.118;11.436;2022-12-29T16:36:51;3.67;;;1.10;;
29570;SDS011;16814;52.118;11.436;2022-12-29T16:39:41;3.78;;;0.95;;
29570;SDS011;16814;52.118;11.436;2022-12-29T16:48:36;6.23;;;1.50;;
29570;SDS011;16814;52.118;11.436;2022-12-29T16:51:36;2.95;;;1.00;;
29570;SDS011;16814;52.118;11.436;2022-12-29T16:54:23;4.97;;;1.80;;
29570;SDS011;16814;52.118;11.436;2022-12-29T16:57:19;3.80;;;1.00;;
29570;SDS011;16814;52.118;11.436;2022-12-29T17:00:29;4.05;;;1.30;;
29570;SDS011;16814;52.118;11.436;2022-12-29T17:03:20;4.40;;;1.38;;
29570;SDS011;16814;52.118;11.436;2022-12-29T17:06:08;5.15;;;1.40;;
29570;SDS011;16814;52.118;11.436;2022-12-29T17:08:59;5.75;;;1.27;;
29570;SDS011;16814;52.118;11.436;2022-12-29T17:11:47;3.85;;;1.10;;
29570;SDS011;16814;52.118;11.436;2022-12-29T17:14:57;3.28;;;1.10;;
29570;SDS011;16814;52.118;11.436;2022-12-29T17:17:52;3.00;;;0.95;;
29570;SDS011;16814;52.118;11.436;2022-12-29T17:20:40;3.13;;;1.00;;
29570;SDS011;16814;52.118;11.436;2022-12-29T17:23:26;5.13;;;1.20;;
29570;SDS011;16814;52.118;11.436;2022-12-29T17:26:14;7.47;;;1.20;;
29570;SDS011;16814;52.118;11.436;2022-12-29T17:29:00;2.65;;;1.05;;
29570;SDS011;16814;52.118;11.436;2022-12-29T17:31:46;4.78;;;1.10;;
29570;SDS011;16814;52.118;11.436;2022-12-29T17:34:17;4.93;;;1.50;;
29570;SDS011;16814;52.118;11.436;2022-12-29T17:36:43;5.10;;;1.20;;
29570;SDS011;16814;52.118;11.436;2022-12-29T17:39:08;1.90;;;1.00;;
29570;SDS011;16814;52.118;11.436;2022-12-29T17:41:34;6.43;;;1.15;;
29570;SDS011;16814;52.118;11.436;2022-12-29T17:44:01;4.93;;;1.00;;
29570;SDS011;16814;52.118;11.436;2022-12-29T17:46:27;4.07;;;0.90;;
29570;SDS011;16814;52.118;11.436;2022-12-29T17:48:52;5.32;;;1.33;;